Time;durP1;ratioP1;P1;durP2;ratioP2;P2;SDS_P1;SDS_P2;PMS_P1;PMS_P2;Temp;Humidity;BMP_temperature;BMP_pressure;BME280_temperature;BME280_humidity;BME280_pressure;Samples;Min_cycle;Max_cycle;Signal;HPM_P1;HPM_P2
2022/08/15 00:00:47;;;;;;;6.40;5.87;;;;;;;;;;5035035;28;20273;-67
2022/08/15 00:03:17;;;;;;;7.07;6.47;;;;;;;;;;5052897;28;20178;-67
2022/08/15 00:05:43;;;;;;;7.00;6.40;;;;;;;;;;5034073;28;20196;-67
2022/08/15 00:08:10;;;;;;;8.57;6.47;;;;;;;;;;5052811;28;20194;-67
2022/08/15 00:10:36;;;;;;;7.67;6.07;;;;;;;;;;5034833;28;20182;-67
2022/08/15 00:13:14;;;;;;;8.07;6.80;;;;;;;;;;5034895;28;20178;-67
2022/08/15 00:15:40;;;;;;;7.43;6.67;;;;;;;;;;5034860;28;20223;-67
2022/08/15 00:18:06;;;;;;;8.90;6.50;;;;;;;;;;5052774;28;20217;-66
2022/08/15 00:20:37;;;;;;;8.13;6.50;;;;;;;;;;5034889;28;20634;-66
2022/08/15 00:23:07;;;;;;;7.20;6.53;;;;;;;;;;5052844;28;20155;-68
2022/08/15 00:25:34;;;;;;;7.27;6.67;;;;;;;;;;5035444;28;20700;-67
2022/08/15 00:28:00;;;;;;;8.47;7.20;;;;;;;;;;5052890;28;20252;-67
2022/08/15 00:30:26;;;;;;;6.90;6.40;;;;;;;;;;5034803;28;20585;-67
2022/08/15 00:32:54;;;;;;;7.97;7.17;;;;;;;;;;5052734;28;20201;-67
2022/08/15 00:38:05;;;;;;;7.40;6.70;;;;;;;;;;5052542;28;20244;-69
2022/08/15 00:41:39;;;;;;;8.70;6.67;;;;;;;;;;5052615;28;20220;-67
2022/08/15 00:43:18;;;;;;;7.37;6.63;;;;;;;;;;5052391;28;20178;-67
2022/08/15 00:45:44;;;;;;;7.30;6.57;;;;;;;;;;5052936;28;20521;-67
2022/08/15 00:50:55;;;;;;;8.20;6.73;;;;;;;;;;5052860;28;20684;-67
2022/08/15 00:53:21;;;;;;;7.53;6.70;;;;;;;;;;5052785;28;20252;-67
2022/08/15 00:55:47;;;;;;;7.67;6.80;;;;;;;;;;5052393;28;20178;-66
2022/08/15 00:58:13;;;;;;;7.20;6.53;;;;;;;;;;5052523;28;20202;-67
2022/08/15 01:00:41;;;;;;;8.37;6.97;;;;;;;;;;5034405;28;20187;-67
2022/08/15 01:03:09;;;;;;;8.00;6.27;;;;;;;;;;5052652;28;20212;-69
2022/08/15 01:05:35;;;;;;;8.37;6.80;;;;;;;;;;5052716;28;20619;-67
2022/08/15 01:08:02;;;;;;;8.03;6.60;;;;;;;;;;5052348;28;20225;-69
2022/08/15 01:10:28;;;;;;;8.67;6.87;;;;;;;;;;5052521;28;20179;-67
2022/08/15 01:12:53;;;;;;;6.90;6.20;;;;;;;;;;5034485;28;20187;-69
2022/08/15 01:15:20;;;;;;;7.77;6.40;;;;;;;;;;5052365;28;20248;-66
2022/08/15 01:17:46;;;;;;;10.47;6.60;;;;;;;;;;5054054;28;20214;-66
2022/08/15 01:20:16;;;;;;;8.17;6.93;;;;;;;;;;5055830;28;20197;-68
2022/08/15 01:23:01;;;;;;;10.00;6.57;;;;;;;;;;5055770;28;20501;-67
2022/08/15 01:25:32;;;;;;;8.60;6.90;;;;;;;;;;5037859;28;20269;-67
2022/08/15 01:27:59;;;;;;;6.03;5.50;;;;;;;;;;5037832;28;20292;-67
2022/08/15 01:30:28;;;;;;;6.43;5.83;;;;;;;;;;5055675;28;20179;-67
2022/08/15 01:32:55;;;;;;;6.30;5.70;;;;;;;;;;5055564;28;20210;-67
2022/08/15 01:35:21;;;;;;;7.53;5.60;;;;;;;;;;5055627;28;20182;-67
2022/08/15 01:37:50;;;;;;;6.63;5.57;;;;;;;;;;5037472;28;20214;-67
2022/08/15 01:40:39;;;;;;;7.40;5.40;;;;;;;;;;5055421;28;20179;-67
2022/08/15 01:43:06;;;;;;;6.30;4.87;;;;;;;;;;5037457;28;20266;-67
2022/08/15 01:45:34;;;;;;;8.33;5.33;;;;;;;;;;5055300;28;20178;-67
2022/08/15 01:48:05;;;;;;;6.63;5.70;;;;;;;;;;5055288;28;20599;-67
2022/08/15 01:50:58;;;;;;;5.67;5.13;;;;;;;;;;5055498;28;20564;-67
2022/08/15 01:53:33;;;;;;;7.20;5.07;;;;;;;;;;5051737;28;20269;-67
2022/08/15 01:56:02;;;;;;;6.07;5.20;;;;;;;;;;5055042;28;20181;-67
2022/08/15 01:58:28;;;;;;;5.33;4.70;;;;;;;;;;5055373;28;20179;-67
2022/08/15 02:00:56;;;;;;;9.23;4.80;;;;;;;;;;5037188;28;20232;-67
2022/08/15 02:03:33;;;;;;;8.53;5.03;;;;;;;;;;5054977;28;20639;-67
2022/08/15 02:05:59;;;;;;;8.17;4.80;;;;;;;;;;5055615;28;20159;-67
2022/08/15 02:08:25;;;;;;;5.33;4.63;;;;;;;;;;5054832;28;20763;-67
2022/08/15 02:10:51;;;;;;;5.03;4.53;;;;;;;;;;5036999;28;20179;-67
2022/08/15 02:13:18;;;;;;;4.87;3.97;;;;;;;;;;5036871;28;20249;-69
2022/08/15 02:15:44;;;;;;;5.13;4.40;;;;;;;;;;5054791;28;20175;-69
2022/08/15 02:18:11;;;;;;;7.67;4.43;;;;;;;;;;5054992;28;20202;-66
2022/08/15 02:20:37;;;;;;;7.23;4.03;;;;;;;;;;5036904;28;20179;-67
2022/08/15 02:23:03;;;;;;;5.80;3.87;;;;;;;;;;5036871;28;20694;-67
2022/08/15 02:25:29;;;;;;;5.87;3.83;;;;;;;;;;5036762;28;20261;-67
2022/08/15 02:27:56;;;;;;;5.13;3.83;;;;;;;;;;5054448;28;20226;-67
2022/08/15 02:30:23;;;;;;;4.93;3.90;;;;;;;;;;5053725;28;20186;-67
2022/08/15 02:32:49;;;;;;;5.13;4.20;;;;;;;;;;5036551;28;20187;-67
2022/08/15 02:35:16;;;;;;;6.47;3.90;;;;;;;;;;5054585;28;20209;-67
2022/08/15 02:37:42;;;;;;;6.63;3.90;;;;;;;;;;5054297;28;20641;-69
2022/08/15 02:40:10;;;;;;;9.17;4.13;;;;;;;;;;5054344;28;20177;-69
2022/08/15 02:42:36;;;;;;;4.07;3.67;;;;;;;;;;5054377;28;20201;-68
2022/08/15 02:45:03;;;;;;;4.87;3.60;;;;;;;;;;5054263;28;20175;-69
2022/08/15 02:47:30;;;;;;;4.40;4.00;;;;;;;;;;5036201;28;20308;-68
2022/08/15 02:49:57;;;;;;;6.80;3.80;;;;;;;;;;5036672;28;20598;-69
2022/08/15 02:52:23;;;;;;;4.77;3.60;;;;;;;;;;5054664;28;20224;-69
2022/08/15 02:54:49;;;;;;;8.50;3.90;;;;;;;;;;5054108;28;20187;-67
2022/08/15 02:57:16;;;;;;;4.47;3.93;;;;;;;;;;5053980;28;20213;-68
2022/08/15 02:59:42;;;;;;;5.13;3.30;;;;;;;;;;5036130;28;20178;-69
2022/08/15 03:02:08;;;;;;;4.00;3.60;;;;;;;;;;5053894;28;20180;-69
2022/08/15 03:04:35;;;;;;;6.57;3.50;;;;;;;;;;5036081;28;20202;-69
2022/08/15 03:07:02;;;;;;;4.43;3.40;;;;;;;;;;5053810;28;20202;-68
2022/08/15 03:09:28;;;;;;;5.13;3.60;;;;;;;;;;5035921;28;20179;-69
2022/08/15 03:11:55;;;;;;;5.60;3.80;;;;;;;;;;5035920;28;20330;-68
2022/08/15 03:14:22;;;;;;;6.57;3.50;;;;;;;;;;5054267;28;20175;-69
2022/08/15 03:16:49;;;;;;;4.73;3.60;;;;;;;;;;5053850;28;20206;-69
2022/08/15 03:19:18;;;;;;;8.23;3.90;;;;;;;;;;5053754;28;20638;-69
2022/08/15 03:21:44;;;;;;;4.80;3.53;;;;;;;;;;5054197;28;20166;-68
2022/08/15 03:24:12;;;;;;;4.93;3.40;;;;;;;;;;5035684;28;20178;-69
2022/08/15 03:26:38;;;;;;;4.47;3.27;;;;;;;;;;5035632;28;20264;-69
2022/08/15 03:29:05;;;;;;;4.33;3.40;;;;;;;;;;5053557;28;20654;-68
2022/08/15 03:31:31;;;;;;;10.63;3.70;;;;;;;;;;5035466;28;20662;-66
2022/08/15 03:33:57;;;;;;;4.13;3.33;;;;;;;;;;5035520;28;20204;-67
2022/08/15 03:36:24;;;;;;;5.33;3.30;;;;;;;;;;5053536;28;20617;-66
2022/08/15 03:38:50;;;;;;;3.43;3.13;;;;;;;;;;5053492;28;20177;-67
2022/08/15 03:41:16;;;;;;;5.33;3.67;;;;;;;;;;5035282;28;20182;-66
2022/08/15 03:43:44;;;;;;;6.20;3.63;;;;;;;;;;5053767;28;20178;-67
2022/08/15 03:46:12;;;;;;;5.50;3.67;;;;;;;;;;5053278;28;20171;-67
2022/08/15 03:48:42;;;;;;;8.50;3.43;;;;;;;;;;5053540;28;20192;-65
2022/08/15 03:51:09;;;;;;;6.23;2.87;;;;;;;;;;5035315;28;20560;-67
2022/08/15 03:53:38;;;;;;;5.10;3.57;;;;;;;;;;5053157;28;20182;-67
2022/08/15 03:56:05;;;;;;;7.10;3.40;;;;;;;;;;5035063;28;20214;-67
2022/08/15 03:58:32;;;;;;;7.93;3.77;;;;;;;;;;5053050;28;20178;-67
2022/08/15 04:00:58;;;;;;;6.33;3.30;;;;;;;;;;5053089;28;20179;-67
2022/08/15 04:03:25;;;;;;;6.17;3.83;;;;;;;;;;5053308;28;20175;-66
2022/08/15 04:05:57;;;;;;;6.63;3.23;;;;;;;;;;5035128;28;20224;-67
2022/08/15 04:08:24;;;;;;;7.10;3.57;;;;;;;;;;5053111;28;20194;-67
2022/08/15 04:10:53;;;;;;;3.30;3.00;;;;;;;;;;5053426;28;20179;-68
2022/08/15 04:13:24;;;;;;;7.60;3.37;;;;;;;;;;5053212;28;20171;-67
2022/08/15 04:15:50;;;;;;;5.57;3.57;;;;;;;;;;5053062;28;20530;-67
2022/08/15 04:18:16;;;;;;;3.67;3.27;;;;;;;;;;5052917;28;20198;-67
2022/08/15 04:20:42;;;;;;;7.57;3.80;;;;;;;;;;5052962;28;20183;-67
2022/08/15 04:23:08;;;;;;;4.17;3.60;;;;;;;;;;5053499;28;20205;-67
2022/08/15 04:25:36;;;;;;;6.07;3.30;;;;;;;;;;5034950;28;20186;-68
2022/08/15 04:28:05;;;;;;;5.60;3.40;;;;;;;;;;5052732;28;20205;-67
2022/08/15 04:30:32;;;;;;;4.30;3.47;;;;;;;;;;5034871;28;20186;-67
2022/08/15 04:33:13;;;;;;;5.90;3.40;;;;;;;;;;5052800;28;20260;-67
2022/08/15 04:35:40;;;;;;;3.43;3.10;;;;;;;;;;5053055;28;20186;-67
2022/08/15 04:38:07;;;;;;;5.10;3.27;;;;;;;;;;5052559;28;20285;-67
2022/08/15 04:40:33;;;;;;;8.80;3.30;;;;;;;;;;5052911;28;20182;-67
2022/08/15 04:42:59;;;;;;;3.97;3.40;;;;;;;;;;5052720;28;20174;-67
2022/08/15 04:45:30;;;;;;;8.23;3.43;;;;;;;;;;5034846;28;20650;-67
2022/08/15 04:47:56;;;;;;;7.17;3.50;;;;;;;;;;5052375;28;20218;-67
2022/08/15 04:50:22;;;;;;;6.13;3.60;;;;;;;;;;5052472;28;20179;-67
2022/08/15 04:55:31;;;;;;;4.20;3.43;;;;;;;;;;5035897;28;20218;-65
2022/08/15 04:57:57;;;;;;;6.37;3.70;;;;;;;;;;5037188;28;20253;-65
2022/08/15 05:00:25;;;;;;;4.70;3.07;;;;;;;;;;5035606;28;20187;-66
2022/08/15 05:03:02;;;;;;;5.03;3.43;;;;;;;;;;5037147;28;20197;-67
2022/08/15 05:05:28;;;;;;;3.53;3.23;;;;;;;;;;5015857;28;20178;-68
2022/08/15 05:07:54;;;;;;;5.57;3.30;;;;;;;;;;5015859;28;20184;-69
2022/08/15 05:10:21;;;;;;;3.60;3.10;;;;;;;;;;5017481;28;20246;-66
2022/08/15 05:12:47;;;;;;;6.23;3.53;;;;;;;;;;5017665;28;20229;-67
2022/08/15 05:15:15;;;;;;;5.20;3.20;;;;;;;;;;5015552;28;20206;-67
2022/08/15 05:17:41;;;;;;;6.83;3.17;;;;;;;;;;5017565;28;20591;-67
2022/08/15 05:20:08;;;;;;;3.87;3.20;;;;;;;;;;5017032;28;20254;-66
2022/08/15 05:22:34;;;;;;;6.17;3.20;;;;;;;;;;5017538;28;20180;-67
2022/08/15 05:25:00;;;;;;;5.70;3.27;;;;;;;;;;5016491;28;20332;-67
2022/08/15 05:27:25;;;;;;;7.40;3.17;;;;;;;;;;5015344;28;20656;-66
2022/08/15 05:29:51;;;;;;;4.50;3.67;;;;;;;;;;5015258;28;20183;-67
2022/08/15 05:32:18;;;;;;;6.73;3.10;;;;;;;;;;5016509;28;20184;-66
2022/08/15 05:34:44;;;;;;;5.23;3.33;;;;;;;;;;5015235;28;20210;-68
2022/08/15 05:37:14;;;;;;;8.43;3.50;;;;;;;;;;5014979;28;20208;-67
2022/08/15 05:39:40;;;;;;;4.63;3.30;;;;;;;;;;5016306;28;20176;-67
2022/08/15 05:42:27;;;;;;;3.17;2.87;;;;;;;;;;5016677;28;20190;-67
2022/08/15 05:45:02;;;;;;;6.60;3.47;;;;;;;;;;5015055;28;20254;-68
2022/08/15 05:47:34;;;;;;;7.27;3.30;;;;;;;;;;5015141;28;20614;-67
2022/08/15 05:50:03;;;;;;;4.50;3.27;;;;;;;;;;5016377;28;20229;-68
2022/08/15 05:52:38;;;;;;;4.37;2.93;;;;;;;;;;5014922;28;20624;-67
2022/08/15 05:55:23;;;;;;;5.03;3.30;;;;;;;;;;5014901;28;20246;-67
2022/08/15 05:58:08;;;;;;;3.70;3.03;;;;;;;;;;5014966;28;20203;-67
2022/08/15 06:00:34;;;;;;;5.17;3.57;;;;;;;;;;5014985;28;20203;-68
2022/08/15 06:03:09;;;;;;;6.67;2.90;;;;;;;;;;5014805;28;20179;-67
2022/08/15 06:05:49;;;;;;;6.83;3.37;;;;;;;;;;5016037;28;20175;-66
2022/08/15 06:08:18;;;;;;;3.40;3.10;;;;;;;;;;5016238;28;20695;-67
2022/08/15 06:10:49;;;;;;;4.73;3.17;;;;;;;;;;5016290;28;20640;-67
2022/08/15 06:13:17;;;;;;;7.40;3.43;;;;;;;;;;5016343;28;20262;-67
2022/08/15 06:15:50;;;;;;;3.43;3.00;;;;;;;;;;5016515;28;20183;-67
2022/08/15 06:18:17;;;;;;;3.67;3.30;;;;;;;;;;5014561;28;20730;-67
2022/08/15 06:21:04;;;;;;;6.03;3.23;;;;;;;;;;5015888;28;20176;-67
2022/08/15 06:23:30;;;;;;;5.67;4.00;;;;;;;;;;5014412;28;20310;-67
2022/08/15 06:26:02;;;;;;;6.53;3.73;;;;;;;;;;5014471;28;20672;-67
2022/08/15 06:28:57;;;;;;;6.97;3.23;;;;;;;;;;5015484;28;20168;-68
2022/08/15 06:31:43;;;;;;;5.00;3.27;;;;;;;;;;5016124;28;20159;-66
2022/08/15 06:34:28;;;;;;;4.90;3.80;;;;;;;;;;5015922;28;20196;-67
2022/08/15 06:37:16;;;;;;;3.47;3.17;;;;;;;;;;5015376;28;20345;-67
2022/08/15 06:40:02;;;;;;;4.17;2.97;;;;;;;;;;5015469;28;20172;-68
2022/08/15 06:42:37;;;;;;;5.00;3.20;;;;;;;;;;5014360;28;20218;-67
2022/08/15 06:45:10;;;;;;;5.30;3.70;;;;;;;;;;5014390;28;20195;-67
2022/08/15 06:47:37;;;;;;;4.43;3.40;;;;;;;;;;5015492;28;20190;-66
2022/08/15 06:50:06;;;;;;;5.70;3.30;;;;;;;;;;5014154;28;20215;-68
2022/08/15 06:52:33;;;;;;;4.13;3.57;;;;;;;;;;5015263;28;20557;-69
2022/08/15 06:54:59;;;;;;;4.67;3.43;;;;;;;;;;5015449;28;20226;-66
2022/08/15 06:57:31;;;;;;;6.07;3.27;;;;;;;;;;5015867;28;20202;-67
2022/08/15 07:00:12;;;;;;;9.10;3.47;;;;;;;;;;5015767;28;20153;-69
2022/08/15 07:02:42;;;;;;;8.17;3.33;;;;;;;;;;5015692;28;20166;-69
2022/08/15 07:05:14;;;;;;;5.27;3.60;;;;;;;;;;5015615;28;20199;-68
2022/08/15 07:07:56;;;;;;;9.00;4.13;;;;;;;;;;5015152;28;20183;-68
2022/08/15 07:10:36;;;;;;;7.00;2.90;;;;;;;;;;5013352;28;20180;-69
2022/08/15 07:13:04;;;;;;;3.40;2.90;;;;;;;;;;5013791;28;20171;-68
2022/08/15 07:15:49;;;;;;;3.93;3.30;;;;;;;;;;5012914;28;20233;-67
2022/08/15 07:18:19;;;;;;;4.93;3.50;;;;;;;;;;5015026;28;20569;-68
2022/08/15 07:20:45;;;;;;;4.67;3.30;;;;;;;;;;5015392;28;20179;-69
2022/08/15 07:23:30;;;;;;;4.83;3.83;;;;;;;;;;5014473;28;20176;-68
2022/08/15 07:26:00;;;;;;;4.10;3.50;;;;;;;;;;5013510;28;20557;-69
2022/08/15 07:28:28;;;;;;;5.70;3.43;;;;;;;;;;5015428;28;20179;-69
2022/08/15 07:30:54;;;;;;;4.00;3.30;;;;;;;;;;5015422;28;20179;-71
2022/08/15 07:33:29;;;;;;;3.33;3.03;;;;;;;;;;5012988;28;20204;-69
2022/08/15 07:36:03;;;;;;;4.20;3.20;;;;;;;;;;5014726;28;20258;-69
2022/08/15 07:38:30;;;;;;;4.97;3.40;;;;;;;;;;5013152;28;20176;-69
2022/08/15 07:41:11;;;;;;;7.50;3.10;;;;;;;;;;5014096;28;20190;-68
2022/08/15 07:43:38;;;;;;;3.57;2.87;;;;;;;;;;5014029;28;20211;-69
2022/08/15 07:46:11;;;;;;;6.80;3.30;;;;;;;;;;5013089;28;20198;-69
2022/08/15 07:48:38;;;;;;;6.67;3.80;;;;;;;;;;5012868;28;20183;-67
2022/08/15 07:51:05;;;;;;;3.13;2.83;;;;;;;;;;5012952;28;20176;-69
2022/08/15 07:53:31;;;;;;;5.50;3.10;;;;;;;;;;5012532;28;20836;-69
2022/08/15 07:56:16;;;;;;;8.57;3.60;;;;;;;;;;5014288;28;20182;-69
2022/08/15 07:58:44;;;;;;;4.43;3.57;;;;;;;;;;5012880;28;20184;-69
2022/08/15 08:01:15;;;;;;;7.43;3.27;;;;;;;;;;5013142;28;20214;-73
2022/08/15 08:03:43;;;;;;;4.50;3.27;;;;;;;;;;5014646;28;20614;-70
2022/08/15 08:06:17;;;;;;;6.27;3.63;;;;;;;;;;5013039;28;20176;-68
2022/08/15 08:08:47;;;;;;;4.47;3.53;;;;;;;;;;5013006;28;20175;-70
2022/08/15 08:11:20;;;;;;;5.57;3.60;;;;;;;;;;5013527;28;20179;-70
2022/08/15 08:13:46;;;;;;;10.00;3.67;;;;;;;;;;5014654;28;20195;-71
2022/08/15 08:16:19;;;;;;;5.27;3.57;;;;;;;;;;5013513;28;20275;-70
2022/08/15 08:18:54;;;;;;;7.73;3.77;;;;;;;;;;5014391;28;20200;-69
2022/08/15 08:21:30;;;;;;;3.70;3.33;;;;;;;;;;5014239;28;20219;-71
2022/08/15 08:24:01;;;;;;;3.90;3.50;;;;;;;;;;5014759;28;20199;-69
2022/08/15 08:26:34;;;;;;;6.73;4.00;;;;;;;;;;5014756;28;20255;-70
2022/08/15 08:29:06;;;;;;;4.87;3.97;;;;;;;;;;5018406;28;20191;-70
2022/08/15 08:31:36;;;;;;;8.93;3.70;;;;;;;;;;5018755;28;20635;-69
2022/08/15 08:34:14;;;;;;;6.27;3.60;;;;;;;;;;5018405;28;20238;-69
2022/08/15 08:36:50;;;;;;;7.27;3.70;;;;;;;;;;5017109;28;20210;-69
2022/08/15 08:39:35;;;;;;;4.67;3.40;;;;;;;;;;5019063;28;20155;-70
2022/08/15 08:42:12;;;;;;;4.90;3.80;;;;;;;;;;5016361;28;20263;-70
2022/08/15 08:44:44;;;;;;;4.87;3.57;;;;;;;;;;5018485;28;20195;-70
2022/08/15 08:47:28;;;;;;;4.20;3.43;;;;;;;;;;5018360;28;20172;-71
2022/08/15 08:49:55;;;;;;;7.63;4.40;;;;;;;;;;5018137;28;20190;-70
2022/08/15 08:52:24;;;;;;;5.80;3.60;;;;;;;;;;5016823;28;20187;-70
2022/08/15 08:54:59;;;;;;;5.47;3.33;;;;;;;;;;5016722;28;20311;-70
2022/08/15 08:57:28;;;;;;;5.90;4.03;;;;;;;;;;5018064;28;20676;-69
2022/08/15 09:00:04;;;;;;;4.83;3.50;;;;;;;;;;5018645;28;20179;-69
2022/08/15 09:02:34;;;;;;;7.33;3.40;;;;;;;;;;5016819;28;20602;-70
2022/08/15 09:05:20;;;;;;;4.77;3.40;;;;;;;;;;5017778;28;20204;-70
2022/08/15 09:07:51;;;;;;;8.37;3.73;;;;;;;;;;5006395;28;20687;-72
2022/08/15 09:10:22;;;;;;;6.70;4.10;;;;;;;;;;5017773;28;20241;-71
2022/08/15 09:15:35;;;;;;;5.33;3.77;;;;;;;;;;5017806;28;20179;-70
2022/08/15 09:18:07;;;;;;;8.70;3.90;;;;;;;;;;5017330;28;20204;-70
2022/08/15 09:20:35;;;;;;;6.80;4.00;;;;;;;;;;5017358;28;20290;-70
2022/08/15 09:23:01;;;;;;;10.50;3.60;;;;;;;;;;5017217;28;20176;-68
2022/08/15 09:25:29;;;;;;;10.47;3.80;;;;;;;;;;5016586;28;20674;-69
2022/08/15 09:27:58;;;;;;;10.80;4.60;;;;;;;;;;5016645;28;20189;-68
2022/08/15 09:30:26;;;;;;;4.83;4.10;;;;;;;;;;5016676;28;20230;-64
2022/08/15 09:33:18;;;;;;;5.20;4.13;;;;;;;;;;5016529;28;20184;-66
2022/08/15 09:35:58;;;;;;;9.13;4.00;;;;;;;;;;5016961;28;20613;-67
2022/08/15 09:38:33;;;;;;;7.87;4.67;;;;;;;;;;5016080;28;20168;-66
2022/08/15 09:41:02;;;;;;;8.53;4.37;;;;;;;;;;5014871;28;20178;-66
2022/08/15 09:43:51;;;;;;;6.83;4.27;;;;;;;;;;5016198;28;20249;-67
2022/08/15 09:46:43;;;;;;;6.87;3.47;;;;;;;;;;5016052;28;20243;-68
2022/08/15 09:49:27;;;;;;;6.23;4.13;;;;;;;;;;5016512;28;20168;-67
2022/08/15 09:52:06;;;;;;;10.30;4.43;;;;;;;;;;5016542;28;20199;-67
2022/08/15 09:54:33;;;;;;;4.50;3.83;;;;;;;;;;5015833;28;20298;-68
2022/08/15 09:57:18;;;;;;;9.87;3.90;;;;;;;;;;5015815;28;20282;-68
2022/08/15 09:59:44;;;;;;;4.03;3.70;;;;;;;;;;5015676;28;20175;-67
2022/08/15 10:02:20;;;;;;;7.33;4.17;;;;;;;;;;5015826;28;20210;-68
2022/08/15 10:04:49;;;;;;;5.13;4.20;;;;;;;;;;5015890;28;20203;-67
2022/08/15 10:07:15;;;;;;;7.67;4.20;;;;;;;;;;5015794;28;20226;-67
2022/08/15 10:09:42;;;;;;;5.23;3.90;;;;;;;;;;5014230;28;20184;-68
2022/08/15 10:12:09;;;;;;;6.57;4.33;;;;;;;;;;5015442;28;20326;-67
2022/08/15 10:14:42;;;;;;;5.53;4.50;;;;;;;;;;5015464;28;20192;-68
2022/08/15 10:17:27;;;;;;;5.67;4.40;;;;;;;;;;5015708;28;20199;-70
2022/08/15 10:19:54;;;;;;;6.13;4.87;;;;;;;;;;5014264;28;20180;-66
2022/08/15 10:22:24;;;;;;;6.03;4.03;;;;;;;;;;5015327;28;20176;-67
2022/08/15 10:25:09;;;;;;;5.40;4.20;;;;;;;;;;5015635;28;20202;-66
2022/08/15 10:27:54;;;;;;;5.23;4.03;;;;;;;;;;5015554;28;20664;-66
2022/08/15 10:30:20;;;;;;;7.30;4.07;;;;;;;;;;5015822;28;20191;-67
2022/08/15 10:32:48;;;;;;;5.70;4.83;;;;;;;;;;5015303;28;20194;-67
2022/08/15 10:35:23;;;;;;;6.10;4.47;;;;;;;;;;5015521;28;20223;-67
2022/08/15 10:37:54;;;;;;;4.80;4.10;;;;;;;;;;5015553;28;20206;-67
2022/08/15 10:40:30;;;;;;;6.13;4.40;;;;;;;;;;5014138;28;20558;-67
2022/08/15 10:43:12;;;;;;;7.20;4.20;;;;;;;;;;5015417;28;20175;-66
2022/08/15 10:45:59;;;;;;;9.33;4.60;;;;;;;;;;5015190;28;20171;-67
2022/08/15 10:48:37;;;;;;;5.90;4.40;;;;;;;;;;5013627;28;20230;-67
2022/08/15 10:51:16;;;;;;;7.60;4.47;;;;;;;;;;5014423;28;20171;-67
2022/08/15 10:53:45;;;;;;;6.53;4.47;;;;;;;;;;5014837;28;20302;-67
2022/08/15 10:56:26;;;;;;;6.50;4.40;;;;;;;;;;5014905;28;20176;-66
2022/08/15 10:59:00;;;;;;;5.73;4.47;;;;;;;;;;5014901;28;20598;-66
2022/08/15 11:01:31;;;;;;;6.67;4.80;;;;;;;;;;5050085;22;20231;-72
2022/08/15 11:04:05;;;;;;;5.00;4.50;;;;;;;;;;5034235;28;20160;-72
2022/08/15 11:06:37;;;;;;;7.23;4.73;;;;;;;;;;5034502;28;20263;-72
2022/08/15 11:09:08;;;;;;;7.13;4.73;;;;;;;;;;5016411;28;20193;-71
2022/08/15 11:11:37;;;;;;;6.30;4.63;;;;;;;;;;5033934;28;20238;-71
2022/08/15 11:14:09;;;;;;;8.80;5.03;;;;;;;;;;5033938;28;20554;-72
2022/08/15 11:16:41;;;;;;;5.40;4.40;;;;;;;;;;5033861;28;20219;-72
2022/08/15 11:19:33;;;;;;;10.97;4.53;;;;;;;;;;5034182;28;20151;-72
2022/08/15 11:22:01;;;;;;;7.10;4.50;;;;;;;;;;5013523;28;20210;-72
2022/08/15 11:24:33;;;;;;;6.03;5.30;;;;;;;;;;5033909;28;20176;-72
2022/08/15 11:27:11;;;;;;;6.50;4.90;;;;;;;;;;5034530;28;20182;-72
2022/08/15 11:29:39;;;;;;;10.20;5.13;;;;;;;;;;5034027;28;20179;-72
2022/08/15 11:32:05;;;;;;;9.33;5.73;;;;;;;;;;5033572;28;20194;-72
2022/08/15 11:34:34;;;;;;;8.27;5.53;;;;;;;;;;5016146;28;20183;-72
2022/08/15 11:37:14;;;;;;;6.17;5.07;;;;;;;;;;5033697;28;20631;-72
2022/08/15 11:39:52;;;;;;;9.07;5.13;;;;;;;;;;5033702;28;20170;-72
2022/08/15 11:42:20;;;;;;;9.27;5.33;;;;;;;;;;5033497;28;20269;-71
2022/08/15 11:45:12;;;;;;;6.20;5.60;;;;;;;;;;5033587;28;20252;-72
2022/08/15 11:47:45;;;;;;;8.50;5.00;;;;;;;;;;5012964;28;20201;-72
2022/08/15 11:50:41;;;;;;;6.03;4.87;;;;;;;;;;5033704;28;20257;-72
2022/08/15 11:53:09;;;;;;;12.07;5.93;;;;;;;;;;5020849;28;20203;-72
2022/08/15 11:55:40;;;;;;;8.07;5.67;;;;;;;;;;5033401;28;20184;-72
2022/08/15 11:58:12;;;;;;;8.57;5.40;;;;;;;;;;5033418;28;20210;-72
2022/08/15 12:00:40;;;;;;;11.33;5.67;;;;;;;;;;5033076;28;20225;-72
2022/08/15 12:03:18;;;;;;;6.77;6.07;;;;;;;;;;5033265;28;20186;-72
2022/08/15 12:05:44;;;;;;;9.10;5.40;;;;;;;;;;5033445;28;20755;-72
2022/08/15 12:08:10;;;;;;;7.60;5.93;;;;;;;;;;5033520;28;20237;-72
2022/08/15 12:10:39;;;;;;;6.20;5.07;;;;;;;;;;5033218;28;20195;-72
2022/08/15 12:13:05;;;;;;;7.20;5.23;;;;;;;;;;5015765;28;20210;-72
2022/08/15 12:15:31;;;;;;;9.53;5.87;;;;;;;;;;5033285;28;20175;-72
2022/08/15 12:18:05;;;;;;;7.63;5.73;;;;;;;;;;5033327;28;20215;-72
2022/08/15 12:20:38;;;;;;;8.47;6.03;;;;;;;;;;5015411;28;20623;-72
2022/08/15 12:23:22;;;;;;;9.67;5.93;;;;;;;;;;5033382;28;20263;-72
2022/08/15 12:25:55;;;;;;;9.20;8.33;;;;;;;;;;5016113;28;20187;-72
2022/08/15 12:28:22;;;;;;;11.73;7.37;;;;;;;;;;5033236;28;20589;-71
2022/08/15 12:30:48;;;;;;;10.23;7.20;;;;;;;;;;5032894;28;20203;-71
2022/08/15 12:33:15;;;;;;;8.47;5.20;;;;;;;;;;5033254;28;20204;-71
2022/08/15 12:35:41;;;;;;;9.47;6.23;;;;;;;;;;5015262;28;20179;-72
2022/08/15 12:38:08;;;;;;;6.77;6.10;;;;;;;;;;5015213;28;20562;-72
2022/08/15 12:40:34;;;;;;;9.73;6.00;;;;;;;;;;5033009;28;20301;-72
2022/08/15 12:43:00;;;;;;;7.70;5.03;;;;;;;;;;5032758;28;20244;-72
2022/08/15 12:45:26;;;;;;;9.23;5.50;;;;;;;;;;5032895;28;20179;-72
2022/08/15 12:47:52;;;;;;;7.17;5.43;;;;;;;;;;5032880;28;20183;-72
2022/08/15 12:50:18;;;;;;;10.67;5.33;;;;;;;;;;5032734;28;20648;-72
2022/08/15 12:52:44;;;;;;;7.30;5.10;;;;;;;;;;5033014;28;20185;-72
2022/08/15 12:55:10;;;;;;;7.97;5.23;;;;;;;;;;5032798;28;20175;-73
2022/08/15 12:57:37;;;;;;;8.47;5.70;;;;;;;;;;5032831;28;20250;-72
2022/08/15 13:00:04;;;;;;;7.70;5.13;;;;;;;;;;5015068;28;20175;-72
2022/08/15 13:02:30;;;;;;;5.47;4.57;;;;;;;;;;5015159;28;20217;-72
2022/08/15 13:04:57;;;;;;;5.50;4.97;;;;;;;;;;5015275;28;20270;-71
2022/08/15 13:07:24;;;;;;;8.70;5.03;;;;;;;;;;5033852;28;20175;-74
2022/08/15 13:09:50;;;;;;;13.23;5.93;;;;;;;;;;5033717;28;20214;-72
2022/08/15 13:12:17;;;;;;;8.33;4.77;;;;;;;;;;5014745;28;20210;-72
2022/08/15 13:14:43;;;;;;;14.27;5.20;;;;;;;;;;5035610;28;20186;-73
2022/08/15 13:17:10;;;;;;;8.40;5.20;;;;;;;;;;5036315;28;20214;-73
2022/08/15 13:25:08;;;;;;;9.07;4.93;;;;;;;;;;5036153;28;20170;-72
2022/08/15 13:27:34;;;;;;;7.20;5.40;;;;;;;;;;5035969;28;20179;-73
2022/08/15 13:30:01;;;;;;;9.27;4.93;;;;;;;;;;5036054;28;20183;-72
2022/08/15 13:32:27;;;;;;;9.23;5.10;;;;;;;;;;5018049;28;20688;-72
2022/08/15 13:34:53;;;;;;;6.70;5.20;;;;;;;;;;5036380;28;20258;-72
2022/08/15 13:37:19;;;;;;;8.93;4.90;;;;;;;;;;5035789;28;20597;-73
2022/08/15 13:39:46;;;;;;;8.03;4.87;;;;;;;;;;5017990;28;20213;-72
2022/08/15 13:42:11;;;;;;;11.13;5.77;;;;;;;;;;5018106;28;20742;-71
2022/08/15 13:44:40;;;;;;;8.30;5.37;;;;;;;;;;5036231;28;20210;-71
2022/08/15 13:47:06;;;;;;;7.27;5.10;;;;;;;;;;5036113;28;20187;-73
2022/08/15 13:49:35;;;;;;;5.67;5.00;;;;;;;;;;5035862;28;20175;-72
2022/08/15 13:52:02;;;;;;;5.97;5.13;;;;;;;;;;5017924;28;20211;-72
2022/08/15 13:54:28;;;;;;;7.77;5.33;;;;;;;;;;5035904;28;20179;-71
2022/08/15 13:56:54;;;;;;;6.50;4.87;;;;;;;;;;5017792;28;20234;-72
2022/08/15 13:59:20;;;;;;;5.50;5.00;;;;;;;;;;5017879;28;20190;-72
2022/08/15 14:01:48;;;;;;;7.47;5.37;;;;;;;;;;5035530;28;20705;-71
2022/08/15 14:04:15;;;;;;;7.13;4.90;;;;;;;;;;5035847;28;20201;-72
2022/08/15 14:06:42;;;;;;;7.57;5.57;;;;;;;;;;5035360;28;20499;-72
2022/08/15 14:09:08;;;;;;;7.50;4.90;;;;;;;;;;5035328;28;20258;-72
2022/08/15 14:11:35;;;;;;;8.37;5.13;;;;;;;;;;5017445;28;20229;-71
2022/08/15 14:14:01;;;;;;;5.53;4.70;;;;;;;;;;5035641;28;20188;-72
2022/08/15 14:16:30;;;;;;;5.70;5.13;;;;;;;;;;5017427;28;20253;-72
2022/08/15 14:18:56;;;;;;;6.13;5.00;;;;;;;;;;5017409;28;20182;-72
2022/08/15 14:21:23;;;;;;;5.73;5.10;;;;;;;;;;5035404;28;20568;-72
2022/08/15 14:23:49;;;;;;;9.27;5.03;;;;;;;;;;5035018;28;20203;-73
2022/08/15 14:26:16;;;;;;;9.23;5.57;;;;;;;;;;5033945;28;20171;-72
2022/08/15 14:28:42;;;;;;;6.53;5.67;;;;;;;;;;5034986;28;20600;-72
2022/08/15 14:31:08;;;;;;;7.50;5.60;;;;;;;;;;5016898;28;20234;-72
2022/08/15 14:33:35;;;;;;;8.53;6.10;;;;;;;;;;5034787;28;20260;-72
2022/08/15 14:36:01;;;;;;;11.80;6.97;;;;;;;;;;5017149;28;20198;-72
2022/08/15 14:38:28;;;;;;;10.40;6.73;;;;;;;;;;5035530;28;20288;-72
2022/08/15 14:40:55;;;;;;;9.67;5.80;;;;;;;;;;5016888;28;20234;-72
2022/08/15 14:43:21;;;;;;;8.57;5.33;;;;;;;;;;5017106;28;20269;-72
2022/08/15 14:45:49;;;;;;;6.83;5.77;;;;;;;;;;5036107;28;20710;-73
2022/08/15 14:48:16;;;;;;;6.23;5.60;;;;;;;;;;5018320;28;20183;-72
2022/08/15 14:50:42;;;;;;;9.27;5.57;;;;;;;;;;5035685;28;20258;-72
2022/08/15 14:53:08;;;;;;;10.63;5.60;;;;;;;;;;5035547;28;20221;-72
2022/08/15 14:55:36;;;;;;;6.70;5.60;;;;;;;;;;5036436;28;20187;-72
2022/08/15 14:58:03;;;;;;;9.77;5.90;;;;;;;;;;5040038;28;20690;-72
2022/08/15 15:00:31;;;;;;;7.13;5.80;;;;;;;;;;5042482;28;20178;-73
2022/08/15 15:02:57;;;;;;;8.00;5.53;;;;;;;;;;5040217;28;20159;-73
2022/08/15 15:05:24;;;;;;;8.67;5.27;;;;;;;;;;5035391;28;20207;-73
2022/08/15 15:07:56;;;;;;;8.53;5.70;;;;;;;;;;5035263;28;20651;-72
2022/08/15 15:10:22;;;;;;;10.33;5.97;;;;;;;;;;5017466;28;20218;-72
2022/08/15 15:12:48;;;;;;;8.23;5.07;;;;;;;;;;5017142;28;20273;-72
2022/08/15 15:15:14;;;;;;;4.63;4.17;;;;;;;;;;5017387;28;20651;-73
2022/08/15 15:17:41;;;;;;;6.53;4.50;;;;;;;;;;5034042;28;20211;-73